Time;durP1;ratioP1;P1;durP2;ratioP2;P2;SDS_P1;SDS_P2;PMS_P1;PMS_P2;Temp;Humidity;BMP_temperature;BMP_pressure;BME280_temperature;BME280_humidity;BME280_pressure;Samples;Min_cycle;Max_cycle;Signal;HPM_P1;HPM_P2
2023/06/04 00:07:54;;;;;;;5.8;2;;;;;;;6;73.3;99200;;;;
2023/06/04 00:18:54;;;;;;;5.8;2;;;;;;;6;74.5;99200;;;;
2023/06/04 00:29:54;;;;;;;5.2;2.1;;;;;;;6.1;74.6;99190;;;;
2023/06/04 00:40:54;;;;;;;5.2;2.1;;;;;;;6.2;75.3;99190;;;;
2023/06/04 00:50:54;;;;;;;5.2;2.1;;;;;;;6.1;74.6;99180;;;;
2023/06/04 01:00:54;;;;;;;5.4;2.4;;;;;;;6;75.3;99180;;;;
2023/06/04 01:11:54;;;;;;;5.4;2.4;;;;;;;5.9;75.1;99180;;;;
2023/06/04 01:22:54;;;;;;;5.4;2.4;;;;;;;5.7;74.4;99190;;;;
2023/06/04 01:32:54;;;;;;;7.1;1.8;;;;;;;5.5;76.4;99180;;;;
2023/06/04 01:43:54;;;;;;;7.1;1.8;;;;;;;5.3;77.6;99180;;;;
2023/06/04 01:53:54;;;;;;;6.2;2;;;;;;;5.2;79.6;99180;;;;
2023/06/04 02:04:54;;;;;;;6.2;2;;;;;;;5.1;78.8;99170;;;;
2023/06/04 02:14:54;;;;;;;6.2;2;;;;;;;4.9;78.4;99170;;;;
2023/06/04 02:25:54;;;;;;;6.9;2.7;;;;;;;4.9;79.4;99170;;;;
2023/06/04 02:35:54;;;;;;;6.9;2.7;;;;;;;4.8;79.8;99180;;;;
2023/06/04 02:46:54;;;;;;;6.9;2.7;;;;;;;4.8;79.7;99180;;;;
2023/06/04 02:57:54;;;;;;;6.1;2.2;;;;;;;4.9;80.8;99170;;;;
2023/06/04 03:08:54;;;;;;;6.1;2.2;;;;;;;5.1;80.9;99170;;;;
2023/06/04 03:18:54;;;;;;;6.1;2.2;;;;;;;5.3;81;99180;;;;
2023/06/04 03:28:54;;;;;;;4.6;2.5;;;;;;;5.5;80.4;99190;;;;
2023/06/04 03:38:54;;;;;;;4.6;2.5;;;;;;;5.8;80.3;99200;;;;
2023/06/04 03:49:54;;;;;;;4.6;2.5;;;;;;;6.1;81.1;99200;;;;
2023/06/04 04:00:54;;;;;;;8.3;2.7;;;;;;;6.6;80;99190;;;;
2023/06/04 04:10:54;;;;;;;8.3;2.7;;;;;;;6.9;78.6;99190;;;;
2023/06/04 04:20:55;;;;;;;8.3;2.7;;;;;;;7.3;77.7;99190;;;;
2023/06/04 04:30:54;;;;;;;6.3;2.9;;;;;;;7.7;76.6;99180;;;;
2023/06/04 04:41:54;;;;;;;6.3;2.9;;;;;;;8.2;75.5;99180;;;;
2023/06/04 04:51:54;;;;;;;6.3;2.9;;;;;;;8.8;73.6;99190;;;;
2023/06/04 05:02:54;;;;;;;5.9;3;;;;;;;9.2;72.2;99200;;;;
2023/06/04 05:12:54;;;;;;;5.9;3;;;;;;;9.7;71.3;99210;;;;
2023/06/04 05:23:54;;;;;;;5.8;3.3;;;;;;;10.2;70.9;99210;;;;
2023/06/04 05:34:56;;;;;;;5.8;3.3;;;;;;;10.8;68.2;99200;;;;
2023/06/04 05:44:54;;;;;;;5.8;3.3;;;;;;;11.1;66;99200;;;;
2023/06/04 05:54:54;;;;;;;6;3.5;;;;;;;11.5;66.1;99200;;;;
2023/06/04 06:05:54;;;;;;;6;3.5;;;;;;;11.9;64.6;99210;;;;
2023/06/04 06:15:54;;;;;;;5.9;2.9;;;;;;;12.4;63.1;99210;;;;
2023/06/04 06:25:54;;;;;;;5.9;2.9;;;;;;;12.8;62.4;99210;;;;
2023/06/04 06:35:54;;;;;;;5.9;2.9;;;;;;;13.1;60.7;99210;;;;
2023/06/04 06:45:54;;;;;;;5.5;3.3;;;;;;;13.4;60.1;99200;;;;
2023/06/04 06:55:54;;;;;;;6.2;3.5;;;;;;;13.9;58.6;99210;;;;
2023/06/04 07:06:54;;;;;;;6.2;3.5;;;;;;;14.4;55.9;99210;;;;
2023/06/04 07:17:54;;;;;;;6.2;3.5;;;;;;;14.9;55.3;99210;;;;
2023/06/04 07:27:57;;;;;;;;;;;;;;;15.3;52.2;99200;;;;
2023/06/04 07:38:54;;;;;;;5;2.4;;;;;;;15.7;52.5;99200;;;;
2023/06/04 07:48:54;;;;;;;5;2.4;;;;;;;16.1;49.6;99190;;;;
2023/06/04 07:59:54;;;;;;;5;2.4;;;;;;;16.7;47.2;99190;;;;
2023/06/04 08:09:55;;;;;;;6.8;2.5;;;;;;;16.8;46.7;99200;;;;
2023/06/04 08:20:54;;;;;;;6.8;2.5;;;;;;;17;43.3;99200;;;;
2023/06/04 08:30:54;;;;;;;6.8;2.5;;;;;;;17.2;42.2;99210;;;;
2023/06/04 08:41:54;;;;;;;4;1.9;;;;;;;17.5;42;99210;;;;
2023/06/04 08:52:54;;;;;;;4;1.9;;;;;;;17.5;43.2;99210;;;;
2023/06/04 09:02:54;;;;;;;4.4;1.8;;;;;;;17.9;39.9;99210;;;;
2023/06/04 09:12:54;;;;;;;4.4;1.8;;;;;;;17.9;40.5;99200;;;;
2023/06/04 09:23:54;;;;;;;4.4;1.8;;;;;;;18.1;40.3;99210;;;;
2023/06/04 09:33:54;;;;;;;4.1;1.6;;;;;;;18.5;39.9;99210;;;;
2023/06/04 09:44:54;;;;;;;4.1;1.6;;;;;;;18.5;40.6;99200;;;;
2023/06/04 09:54:55;;;;;;;4.1;1.6;;;;;;;18.7;39.9;99200;;;;
2023/06/04 10:04:54;;;;;;;5.6;1.8;;;;;;;19;40.6;99190;;;;
2023/06/04 10:14:54;;;;;;;5.6;1.8;;;;;;;19.3;39.5;99180;;;;
2023/06/04 10:25:54;;;;;;;5.6;1.8;;;;;;;19.5;40.3;99190;;;;
2023/06/04 10:35:54;;;;;;;5.4;1.9;;;;;;;19.6;38;99190;;;;
2023/06/04 10:45:54;;;;;;;5.4;1.9;;;;;;;19.9;37.4;99180;;;;
2023/06/04 10:56:54;;;;;;;5.4;1.9;;;;;;;19.8;36.8;99170;;;;
2023/06/04 11:06:54;;;;;;;7.5;1.9;;;;;;;20;36.9;99180;;;;
2023/06/04 11:17:54;;;;;;;7.5;1.9;;;;;;;20;36.7;99170;;;;
2023/06/04 11:27:55;;;;;;;7.5;1.9;;;;;;;20.6;37.3;99170;;;;
2023/06/04 11:37:54;;;;;;;3.8;1.7;;;;;;;20.5;36.2;99170;;;;
2023/06/04 11:47:55;;;;;;;3.8;1.7;;;;;;;20.9;35.6;99160;;;;
2023/06/04 11:57:54;;;;;;;3.8;1.7;;;;;;;21;35.8;99160;;;;
2023/06/04 12:07:54;;;;;;;4.9;1.9;;;;;;;20.9;36.2;99160;;;;
2023/06/04 12:18:54;;;;;;;4.9;1.9;;;;;;;21.1;34.3;99160;;;;
2023/06/04 12:29:54;;;;;;;4.9;1.9;;;;;;;21.5;35.1;99150;;;;
2023/06/04 12:39:55;;;;;;;6.3;2.4;;;;;;;21.7;32.4;99150;;;;
2023/06/04 12:49:54;;;;;;;6.3;2.4;;;;;;;22;33.8;99150;;;;
2023/06/04 12:59:54;;;;;;;6.3;2.4;;;;;;;22;33.6;99140;;;;
2023/06/04 13:09:54;;;;;;;5.8;2.5;;;;;;;22.4;32.1;99140;;;;
2023/06/04 13:19:54;;;;;;;5.8;2.5;;;;;;;22.4;33.4;99140;;;;
2023/06/04 13:29:54;;;;;;;5.8;2.5;;;;;;;22.6;33.4;99140;;;;
2023/06/04 13:39:54;;;;;;;6.7;1.9;;;;;;;22.7;32.2;99130;;;;
2023/06/04 13:49:54;;;;;;;6.7;1.9;;;;;;;23;34.4;99120;;;;
2023/06/04 14:00:54;;;;;;;6.7;1.9;;;;;;;23.2;32.3;99110;;;;
2023/06/04 14:10:56;;;;;;;4.8;2.6;;;;;;;23.6;32;99110;;;;
2023/06/04 14:21:54;;;;;;;4.8;2.6;;;;;;;23.9;30.6;99100;;;;
2023/06/04 14:31:54;;;;;;;4.8;2.6;;;;;;;24.3;31.9;99100;;;;
2023/06/04 14:41:54;;;;;;;6.1;2.7;;;;;;;24.1;33;99090;;;;
2023/06/04 14:52:54;;;;;;;6.1;2.7;;;;;;;24;32.5;99090;;;;
2023/06/04 15:03:54;;;;;;;5.9;2.6;;;;;;;26.1;28.6;99080;;;;
2023/06/04 15:14:54;;;;;;;5.9;2.6;;;;;;;29;24.9;99070;;;;
2023/06/04 15:24:54;;;;;;;5.9;2.6;;;;;;;29.3;26.2;99070;;;;
2023/06/04 15:35:54;;;;;;;5.8;2.2;;;;;;;31.4;23.2;99050;;;;
2023/06/04 15:46:54;;;;;;;5.8;2.2;;;;;;;31.8;21.8;99050;;;;
2023/06/04 15:56:54;;;;;;;5.8;2.2;;;;;;;31.6;23;99060;;;;
2023/06/04 16:06:54;;;;;;;4.2;1.9;;;;;;;32.1;22.3;99050;;;;
2023/06/04 16:16:54;;;;;;;4.2;1.9;;;;;;;32.7;21;99050;;;;
2023/06/04 16:27:54;;;;;;;4.2;1.9;;;;;;;31.9;21.5;99060;;;;
2023/06/04 16:37:54;;;;;;;4.4;2;;;;;;;31.8;22.5;99060;;;;
2023/06/04 16:47:54;;;;;;;4.4;2;;;;;;;31.3;21.8;99060;;;;
2023/06/04 16:57:54;;;;;;;4.4;2;;;;;;;30.8;22.5;99060;;;;
2023/06/04 17:07:54;;;;;;;4.1;1.7;;;;;;;28.2;25.5;99070;;;;
2023/06/04 17:17:59;;;;;;;4.1;1.7;;;;;;;25;28.5;99080;;;;
2023/06/04 17:28:54;;;;;;;4.1;1.7;;;;;;;23.7;30.1;99090;;;;
2023/06/04 17:39:54;;;;;;;5.6;2.3;;;;;;;26;27.6;99090;;;;
2023/06/04 17:49:54;;;;;;;5.6;2.3;;;;;;;26.3;26.9;99090;;;;
2023/06/04 17:59:54;;;;;;;5.6;2.3;;;;;;;26.1;26.7;99090;;;;
2023/06/04 18:10:55;;;;;;;5.2;2.5;;;;;;;23.9;29.3;99100;;;;
2023/06/04 18:21:54;;;;;;;5.2;2.5;;;;;;;21.7;33.3;99100;;;;
2023/06/04 18:31:54;;;;;;;5.2;2.5;;;;;;;20.1;35.6;99110;;;;
2023/06/04 18:41:55;;;;;;;;;;;;;;;18.8;37.9;99120;;;;
2023/06/04 18:51:54;;;;;;;7.4;1.6;;;;;;;17.8;39.6;99130;;;;
2023/06/04 19:02:54;;;;;;;7.4;1.6;;;;;;;16.8;44.9;99150;;;;
2023/06/04 19:12:54;;;;;;;7.4;1.6;;;;;;;16.1;45.4;99160;;;;
2023/06/04 19:22:54;;;;;;;7.5;3.2;;;;;;;15.4;47.1;99170;;;;
2023/06/04 19:33:54;;;;;;;7.5;3.2;;;;;;;15;47.8;99180;;;;
2023/06/04 19:43:54;;;;;;;5.9;3;;;;;;;14.7;48.6;99180;;;;
2023/06/04 19:54:55;;;;;;;5.9;3;;;;;;;14.1;49.8;99190;;;;
2023/06/04 20:04:55;;;;;;;5.9;3;;;;;;;13.7;51.5;99190;;;;
2023/06/04 20:14:55;;;;;;;6.6;3.5;;;;;;;13.2;52;99190;;;;
2023/06/04 20:24:55;;;;;;;6.6;3.5;;;;;;;12.8;53.9;99200;;;;
2023/06/04 20:34:54;;;;;;;6.6;3.5;;;;;;;12.4;55.6;99210;;;;
2023/06/04 20:44:55;;;;;;;5.5;2.7;;;;;;;12;54.5;99210;;;;
2023/06/04 20:55:54;;;;;;;5.5;2.7;;;;;;;11.7;55;99200;;;;
2023/06/04 21:06:54;;;;;;;5.5;2.7;;;;;;;11.4;56.2;99210;;;;
2023/06/04 21:17:54;;;;;;;7.7;2.2;;;;;;;11.1;57.7;99210;;;;
2023/06/04 21:27:54;;;;;;;7.7;2.2;;;;;;;10.9;58.5;99220;;;;
2023/06/04 21:37:54;;;;;;;7.7;2.2;;;;;;;10.6;60;99230;;;;
2023/06/04 21:47:54;;;;;;;5.8;2;;;;;;;10.4;60.3;99230;;;;
2023/06/04 21:58:55;;;;;;;5.8;2;;;;;;;10.2;64.1;99240;;;;
2023/06/04 22:08:54;;;;;;;5.8;2;;;;;;;10.1;64.5;99250;;;;
2023/06/04 22:18:54;;;;;;;5.3;2.7;;;;;;;10.1;68.5;99250;;;;
2023/06/04 22:29:55;;;;;;;5.3;2.7;;;;;;;10;67;99250;;;;
2023/06/04 22:40:54;;;;;;;5.3;2.7;;;;;;;9.8;68.9;99250;;;;
2023/06/04 22:50:56;;;;;;;6.3;3;;;;;;;9.6;68.4;99250;;;;
2023/06/04 23:01:54;;;;;;;6.3;3;;;;;;;9.3;67.6;99250;;;;
2023/06/04 23:11:54;;;;;;;6.3;3;;;;;;;9.2;67.4;99250;;;;
2023/06/04 23:21:54;;;;;;;4.5;2.1;;;;;;;9.2;68.1;99240;;;;
2023/06/04 23:32:54;;;;;;;4.5;2.1;;;;;;;9;66.6;99250;;;;
2023/06/04 23:43:54;;;;;;;3.7;1.9;;;;;;;8.8;66.8;99260;;;;
2023/06/04 23:53:55;;;;;;;3.7;1.9;;;;;;;8.6;66.9;99250;;;;
